Time;durP1;ratioP1;P1;durP2;ratioP2;P2;SDS_P1;SDS_P2;PMS_P1;PMS_P2;Temp;Humidity;BMP_temperature;BMP_pressure;BME280_temperature;BME280_humidity;BME280_pressure;Samples;Min_cycle;Max_cycle;Signal;HPM_P1;HPM_P2
2021/07/22 00:00:00;;;;;;;7.03;6.33;;;16.70;99.90;;;;;;4935574;29;20475;-80
2021/07/22 04:31:42;;;;;;;12.87;8.10;;;14.80;99.90;;;;;;5590689;23;20529;-73
2021/07/22 04:34:07;;;;;;;11.27;7.60;;;14.90;99.90;;;;;;4991974;28;20498;-73
2021/07/22 04:36:33;;;;;;;11.80;7.20;;;15.00;99.90;;;;;;4993551;28;20182;-73
2021/07/22 04:39:03;;;;;;;18.63;8.40;;;15.00;99.90;;;;;;4996030;28;20211;-73
2021/07/22 04:41:29;;;;;;;9.93;7.80;;;15.00;99.90;;;;;;4985343;28;20235;-73
2021/07/22 04:43:55;;;;;;;10.33;7.83;;;15.00;99.90;;;;;;4976230;28;20427;-74
2021/07/22 04:46:20;;;;;;;10.07;8.40;;;15.00;99.90;;;;;;4975320;28;20421;-74
2021/07/22 04:48:46;;;;;;;12.57;8.17;;;15.00;99.90;;;;;;4976421;28;20206;-74
2021/07/22 04:51:12;;;;;;;8.33;7.50;;;15.10;99.90;;;;;;4976540;28;20200;-74
2021/07/22 04:53:37;;;;;;;10.50;8.40;;;15.10;99.90;;;;;;4976473;28;20474;-74
2021/07/22 04:56:03;;;;;;;15.47;9.13;;;15.20;99.90;;;;;;4976445;28;20180;-74
2021/07/22 04:58:29;;;;;;;11.27;8.30;;;15.30;99.90;;;;;;4976390;28;20180;-74
2021/07/22 05:00:54;;;;;;;11.30;8.30;;;15.40;99.90;;;;;;4974909;28;20502;-74
2021/07/22 05:03:20;;;;;;;12.23;8.80;;;15.50;99.90;;;;;;4976262;28;20180;-74
2021/07/22 05:05:46;;;;;;;13.80;8.70;;;15.60;99.90;;;;;;4976525;28;20187;-74
2021/07/22 05:08:11;;;;;;;11.13;8.30;;;15.70;99.90;;;;;;4976492;28;20231;-74
2021/07/22 05:10:37;;;;;;;11.60;8.47;;;15.80;99.90;;;;;;4976463;28;20196;-74
2021/07/22 05:13:06;;;;;;;17.03;8.40;;;16.00;99.90;;;;;;4975163;28;20180;-74
2021/07/22 05:15:32;;;;;;;9.97;8.57;;;16.10;99.90;;;;;;4976460;28;20172;-74
2021/07/22 05:17:58;;;;;;;17.00;8.67;;;16.30;99.90;;;;;;4975111;28;20588;-75
2021/07/22 05:20:23;;;;;;;13.97;8.70;;;16.60;99.90;;;;;;4975754;28;20555;-74
2021/07/22 05:22:49;;;;;;;10.80;8.50;;;16.90;99.90;;;;;;4976044;28;20175;-75
2021/07/22 05:25:16;;;;;;;10.03;7.40;;;17.20;99.90;;;;;;4975761;28;20180;-74
2021/07/22 05:27:41;;;;;;;10.30;7.57;;;17.50;99.90;;;;;;4975789;28;20328;-74
2021/07/22 05:30:10;;;;;;;10.63;8.13;;;17.80;99.90;;;;;;4975696;28;20459;-75
2021/07/22 05:32:35;;;;;;;15.03;8.10;;;18.20;99.90;;;;;;4974712;28;20216;-74
2021/07/22 05:35:01;;;;;;;9.97;8.50;;;18.50;99.90;;;;;;4970520;28;20419;-74
2021/07/22 05:37:26;;;;;;;11.20;7.60;;;18.80;99.90;;;;;;4975717;28;20215;-75
2021/07/22 05:39:52;;;;;;;13.40;8.70;;;19.00;99.90;;;;;;4976135;28;20180;-74
2021/07/22 05:42:17;;;;;;;9.70;8.30;;;19.30;99.90;;;;;;4975969;28;20211;-74
2021/07/22 05:44:43;;;;;;;10.50;9.17;;;19.60;99.90;;;;;;4974605;28;20547;-75
2021/07/22 05:47:09;;;;;;;13.40;8.20;;;20.00;99.90;;;;;;4973913;28;20726;-74
2021/07/22 05:49:34;;;;;;;10.90;8.50;;;20.10;99.90;;;;;;4973318;28;20176;-74
2021/07/22 05:52:00;;;;;;;9.17;7.83;;;20.00;99.90;;;;;;4974262;28;20312;-74
2021/07/22 05:54:26;;;;;;;17.63;8.60;;;20.00;99.90;;;;;;4975621;28;20198;-75
2021/07/22 05:56:51;;;;;;;10.23;8.40;;;20.20;99.90;;;;;;4973901;28;20191;-75
2021/07/22 05:59:17;;;;;;;10.17;9.10;;;20.20;99.90;;;;;;4975307;28;20180;-75
2021/07/22 06:01:43;;;;;;;11.10;8.33;;;20.30;99.90;;;;;;4975600;28;20414;-75
2021/07/22 06:04:08;;;;;;;18.20;8.63;;;20.30;99.90;;;;;;4975287;28;20180;-75
2021/07/22 06:06:35;;;;;;;11.90;8.33;;;20.50;99.90;;;;;;4973906;28;20231;-75
2021/07/22 06:09:01;;;;;;;9.50;8.57;;;20.70;99.90;;;;;;4974517;28;20665;-74
2021/07/22 06:11:27;;;;;;;8.33;7.17;;;20.80;99.90;;;;;;4973821;28;21014;-76
2021/07/22 06:13:53;;;;;;;8.97;7.70;;;21.10;99.90;;;;;;4975071;28;20444;-75
2021/07/22 06:16:18;;;;;;;12.90;8.53;;;21.20;99.90;;;;;;4976288;28;20454;-76
2021/07/22 06:18:44;;;;;;;11.90;8.17;;;21.20;99.90;;;;;;4975314;28;20192;-75
2021/07/22 06:21:15;;;;;;;9.50;7.83;;;21.40;99.90;;;;;;4975233;28;20264;-77
2021/07/22 06:23:41;;;;;;;10.00;6.77;;;21.50;99.90;;;;;;4973118;28;20184;-77
2021/07/22 06:26:07;;;;;;;13.80;7.73;;;21.50;99.90;;;;;;4975179;28;20447;-76
2021/07/22 06:28:33;;;;;;;12.57;8.90;;;21.90;99.90;;;;;;4974604;28;20999;-76
2021/07/22 06:30:58;;;;;;;9.10;7.80;;;22.00;99.90;;;;;;4974588;28;20242;-76
2021/07/22 06:33:24;;;;;;;17.33;8.47;;;22.10;99.90;;;;;;4973521;28;20676;-76
2021/07/22 06:35:51;;;;;;;14.87;8.07;;;22.10;99.90;;;;;;4975136;28;20211;-76
2021/07/22 06:38:16;;;;;;;11.67;8.00;;;22.40;99.90;;;;;;4973369;28;20493;-76
2021/07/22 06:40:42;;;;;;;12.53;8.00;;;22.10;99.90;;;;;;4976026;28;20522;-76
2021/07/22 06:43:09;;;;;;;9.67;7.87;;;22.00;99.90;;;;;;4975220;28;20252;-76
2021/07/22 06:45:35;;;;;;;9.90;7.20;;;22.10;99.90;;;;;;4975267;28;20419;-76
2021/07/22 06:48:02;;;;;;;10.83;8.10;;;22.50;99.90;;;;;;4975465;28;20494;-76
2021/07/22 06:50:28;;;;;;;9.90;7.63;;;22.50;99.90;;;;;;4975128;28;20466;-76
2021/07/22 06:52:57;;;;;;;12.07;8.20;;;22.90;99.90;;;;;;4974823;28;20831;-76
2021/07/22 06:55:26;;;;;;;13.47;7.57;;;23.60;99.90;;;;;;4975330;28;20263;-78
2021/07/22 06:57:52;;;;;;;12.70;7.43;;;23.50;99.90;;;;;;4976268;28;20994;-77
2021/07/22 07:00:18;;;;;;;9.10;6.67;;;23.20;99.90;;;;;;4976730;28;20426;-75
2021/07/22 07:02:44;;;;;;;10.33;6.87;;;23.30;99.90;;;;;;4974579;28;20443;-78
2021/07/22 07:05:10;;;;;;;9.80;7.20;;;23.60;99.90;;;;;;4975573;28;20431;-77
2021/07/22 07:07:36;;;;;;;14.50;7.70;;;23.70;99.90;;;;;;4979320;28;20199;-76
2021/07/22 07:10:01;;;;;;;18.27;7.97;;;24.00;99.90;;;;;;4974326;28;20558;-78
2021/07/22 07:12:27;;;;;;;9.37;7.73;;;24.40;99.90;;;;;;4966277;28;21689;-78
2021/07/22 07:14:53;;;;;;;8.70;7.60;;;24.60;99.90;;;;;;4972507;28;20191;-77
2021/07/22 07:17:18;;;;;;;11.33;7.10;;;24.40;99.90;;;;;;4972590;28;20231;-78
2021/07/22 07:19:44;;;;;;;9.23;7.57;;;24.60;99.90;;;;;;4975354;28;20176;-76
2021/07/22 07:22:10;;;;;;;8.97;7.23;;;24.80;99.90;;;;;;4978832;28;20207;-78
2021/07/22 07:24:36;;;;;;;10.03;6.87;;;25.00;99.90;;;;;;4975201;28;20426;-78
2021/07/22 07:27:04;;;;;;;9.93;7.40;;;24.90;99.90;;;;;;4973779;28;20186;-76
2021/07/22 07:29:29;;;;;;;9.23;6.90;;;25.10;99.90;;;;;;4973158;28;20210;-76
2021/07/22 07:31:59;;;;;;;8.13;7.30;;;24.90;99.90;;;;;;4972545;28;20459;-77
2021/07/22 07:34:25;;;;;;;7.43;6.73;;;24.80;99.90;;;;;;4968324;28;20238;-78
2021/07/22 07:36:50;;;;;;;12.60;7.30;;;25.10;99.90;;;;;;4973499;28;20403;-76
2021/07/22 07:39:16;;;;;;;14.83;9.27;;;25.40;99.90;;;;;;4972110;28;20194;-75
2021/07/22 07:41:42;;;;;;;13.00;8.90;;;25.50;99.90;;;;;;4970893;28;20316;-76
2021/07/22 07:44:08;;;;;;;10.47;8.20;;;25.60;99.90;;;;;;4966835;28;20259;-76
2021/07/22 07:46:34;;;;;;;12.40;8.97;;;25.80;99.90;;;;;;4973554;28;20498;-76
2021/07/22 07:48:59;;;;;;;15.77;8.40;;;25.80;99.90;;;;;;4972465;28;20215;-76
2021/07/22 07:51:25;;;;;;;12.50;8.13;;;26.20;99.90;;;;;;4973193;28;20560;-76
2021/07/22 07:53:51;;;;;;;14.73;8.70;;;26.50;99.90;;;;;;4971644;28;20212;-76
2021/07/22 07:56:17;;;;;;;9.17;7.10;;;26.70;99.90;;;;;;4971148;28;20212;-76
2021/07/22 07:58:42;;;;;;;9.37;6.80;;;26.80;99.90;;;;;;4968154;28;20448;-76
2021/07/22 08:01:08;;;;;;;10.10;7.07;;;27.00;99.90;;;;;;4972769;28;20195;-76
2021/07/22 08:03:33;;;;;;;8.20;7.30;;;27.20;99.90;;;;;;4971900;28;20180;-76
2021/07/22 08:05:59;;;;;;;11.83;7.37;;;27.20;99.90;;;;;;4971687;28;20195;-76
2021/07/22 08:08:24;;;;;;;8.37;7.10;;;27.30;99.90;;;;;;4972870;28;20707;-76
2021/07/22 08:10:50;;;;;;;9.67;7.03;;;27.40;99.90;;;;;;4955689;28;20211;-76
2021/07/22 08:13:16;;;;;;;13.80;6.73;;;27.50;99.90;;;;;;4969764;28;20203;-77
2021/07/22 08:15:43;;;;;;;8.20;6.00;;;27.60;99.90;;;;;;4973033;28;20181;-76
2021/07/22 08:18:09;;;;;;;8.70;6.93;;;27.70;99.90;;;;;;4977098;28;20168;-76
2021/07/22 08:20:35;;;;;;;9.17;7.10;;;27.70;99.90;;;;;;4973351;28;20459;-76
2021/07/22 08:23:01;;;;;;;7.47;6.40;;;27.80;99.90;;;;;;4975653;28;21018;-77
2021/07/22 08:25:27;;;;;;;10.13;7.37;;;28.10;99.90;;;;;;4975492;28;20672;-77
2021/07/22 08:27:52;;;;;;;11.10;8.50;;;28.40;99.90;;;;;;4961066;28;20208;-76
2021/07/22 08:30:18;;;;;;;8.60;7.67;;;28.50;99.90;;;;;;4974360;28;20188;-77
2021/07/22 08:32:44;;;;;;;9.33;7.37;;;28.30;99.90;;;;;;4974869;28;20695;-76
2021/07/22 08:35:10;;;;;;;7.33;6.03;;;28.50;99.90;;;;;;4974477;28;20471;-77
2021/07/22 08:37:36;;;;;;;8.57;7.23;;;28.80;99.90;;;;;;4977146;28;20184;-79
2021/07/22 08:40:05;;;;;;;11.80;6.97;;;29.10;99.90;;;;;;4980564;28;20419;-79
2021/07/22 08:42:38;;;;;;;6.93;5.90;;;29.20;99.90;;;;;;4979172;28;20556;-80
2021/07/22 08:45:05;;;;;;;8.70;6.57;;;29.40;99.90;;;;;;4979528;28;20472;-79
2021/07/22 08:47:32;;;;;;;8.80;6.70;;;29.50;99.90;;;;;;4968737;28;20470;-79
2021/07/22 08:49:58;;;;;;;7.73;6.57;;;29.30;99.90;;;;;;4978545;28;20423;-79
2021/07/22 08:52:24;;;;;;;9.77;7.30;;;29.50;99.90;;;;;;4976531;28;20587;-79
2021/07/22 08:54:50;;;;;;;14.33;5.83;;;29.90;99.90;;;;;;4978389;28;20439;-80
2021/07/22 08:57:18;;;;;;;10.90;7.07;;;30.00;99.90;;;;;;4974390;28;20250;-82
2021/07/22 08:59:43;;;;;;;10.93;7.90;;;30.10;99.90;;;;;;4977952;28;20185;-82
2021/07/22 09:02:19;;;;;;;7.70;6.60;;;30.00;99.90;;;;;;4961050;28;20439;-78
2021/07/22 09:04:54;;;;;;;8.53;6.60;;;30.50;99.90;;;;;;4960074;29;20223;-79
2021/07/22 09:07:20;;;;;;;10.43;7.13;;;30.50;99.90;;;;;;4960639;29;20466;-80
2021/07/22 09:10:06;;;;;;;9.13;7.13;;;30.60;99.90;;;;;;4960026;28;20412;-78
2021/07/22 09:12:58;;;;;;;8.53;7.20;;;30.40;99.90;;;;;;4959858;28;20197;-80
2021/07/22 09:15:29;;;;;;;9.17;7.23;;;30.60;99.90;;;;;;4957404;29;20846;-80
2021/07/22 09:17:55;;;;;;;10.40;7.10;;;30.60;99.90;;;;;;4957555;29;20435;-80
2021/07/22 09:20:35;;;;;;;7.80;6.97;;;30.60;99.90;;;;;;4964584;28;20819;-80
2021/07/22 09:23:02;;;;;;;7.63;6.90;;;31.30;99.90;;;;;;4977830;28;20410;-78
2021/07/22 09:25:57;;;;;;;8.23;6.30;;;31.50;99.90;;;;;;4976779;28;20423;-78
2021/07/22 09:28:25;;;;;;;7.47;6.47;;;31.40;99.90;;;;;;4977608;28;20471;-79
2021/07/22 09:30:55;;;;;;;9.23;7.30;;;31.30;99.90;;;;;;4978569;28;20435;-79
2021/07/22 09:33:33;;;;;;;7.73;6.43;;;31.20;99.90;;;;;;4978902;28;20633;-78
2021/07/22 09:35:59;;;;;;;13.70;6.70;;;31.00;99.90;;;;;;4977752;28;20399;-78
2021/07/22 09:38:27;;;;;;;15.30;6.90;;;31.30;99.90;;;;;;4977939;28;20411;-78
2021/07/22 09:40:54;;;;;;;7.63;6.20;;;31.50;99.90;;;;;;4978987;28;20207;-78
2021/07/22 09:43:38;;;;;;;8.67;7.30;;;31.90;99.90;;;;;;4978219;28;20491;-78
2021/07/22 09:46:04;;;;;;;7.67;6.90;;;31.80;99.90;;;;;;4978938;28;20894;-79
2021/07/22 09:48:29;;;;;;;11.63;6.57;;;32.10;99.90;;;;;;4976952;28;20546;-79
2021/07/22 09:50:55;;;;;;;8.10;6.87;;;32.30;99.90;;;;;;4978326;28;20192;-79
2021/07/22 09:53:23;;;;;;;6.17;5.67;;;32.60;99.80;;;;;;4978260;28;20203;-79
2021/07/22 09:55:54;;;;;;;9.33;6.60;;;32.50;99.90;;;;;;4977857;28;20172;-79
2021/07/22 09:58:20;;;;;;;7.63;6.73;;;32.80;99.90;;;;;;4978314;28;20435;-79
2021/07/22 10:00:48;;;;;;;7.80;6.47;;;33.30;99.70;;;;;;4978020;28;20458;-79
2021/07/22 10:03:15;;;;;;;9.00;8.20;;;33.40;98.20;;;;;;4976427;28;20485;-79
2021/07/22 10:05:45;;;;;;;7.00;6.10;;;33.90;98.10;;;;;;4977475;28;20502;-80
2021/07/22 10:08:18;;;;;;;8.33;6.73;;;33.90;97.80;;;;;;4977633;28;20447;-77
2021/07/22 10:10:50;;;;;;;10.07;6.67;;;33.50;97.10;;;;;;4975277;28;21009;-77
2021/07/22 10:13:16;;;;;;;8.30;6.20;;;33.20;97.80;;;;;;4976670;28;20530;-77
2021/07/22 10:15:45;;;;;;;8.13;5.80;;;33.10;98.10;;;;;;4975880;28;20847;-76
2021/07/22 10:18:11;;;;;;;6.90;6.10;;;33.20;95.80;;;;;;4975157;28;20203;-77
2021/07/22 10:20:42;;;;;;;7.23;5.83;;;33.50;95.90;;;;;;4974436;28;20964;-77
2021/07/22 10:23:11;;;;;;;17.13;6.87;;;34.00;96.40;;;;;;4975197;28;20186;-77
2021/07/22 10:25:37;;;;;;;11.47;6.10;;;34.00;97.00;;;;;;4974746;28;20992;-76
2021/07/22 10:28:03;;;;;;;10.60;6.53;;;34.10;97.30;;;;;;4977593;28;20463;-77
2021/07/22 10:30:29;;;;;;;6.73;6.13;;;34.50;97.40;;;;;;4975454;28;20203;-77
2021/07/22 10:32:58;;;;;;;9.23;6.30;;;34.50;95.20;;;;;;4978420;28;20431;-80
2021/07/22 10:35:33;;;;;;;8.90;6.13;;;34.30;94.70;;;;;;4979269;28;20419;-80
2021/07/22 10:38:06;;;;;;;10.53;5.80;;;34.20;94.90;;;;;;4974773;28;20419;-78
2021/07/22 10:40:57;;;;;;;7.13;6.37;;;34.10;95.80;;;;;;4974630;28;20436;-78
2021/07/22 10:43:39;;;;;;;8.90;6.20;;;34.30;96.10;;;;;;4975476;28;20391;-79
2021/07/22 10:46:13;;;;;;;7.23;6.13;;;34.30;93.90;;;;;;4974075;28;20463;-78
2021/07/22 10:48:41;;;;;;;8.10;5.93;;;34.20;94.20;;;;;;4976221;28;20978;-79
2021/07/22 10:51:11;;;;;;;8.70;7.33;;;33.70;95.40;;;;;;4973570;28;20995;-79
2021/07/22 10:53:41;;;;;;;6.93;6.33;;;33.80;95.20;;;;;;4975707;28;20502;-79
2021/07/22 10:56:10;;;;;;;7.47;6.77;;;33.90;95.40;;;;;;4974768;28;20411;-78
2021/07/22 10:58:46;;;;;;;6.27;5.67;;;34.20;94.00;;;;;;4974934;28;20445;-78
2021/07/22 11:01:11;;;;;;;8.57;6.93;;;34.00;94.50;;;;;;4975058;28;20435;-78
2021/07/22 11:03:51;;;;;;;10.10;6.60;;;34.20;95.50;;;;;;4975680;28;20807;-78
2021/07/22 11:06:17;;;;;;;7.00;6.40;;;34.00;95.30;;;;;;4975404;28;20183;-79
2021/07/22 11:08:44;;;;;;;8.97;7.27;;;33.90;95.10;;;;;;4978901;28;20841;-80
2021/07/22 11:11:13;;;;;;;7.60;6.07;;;33.70;93.90;;;;;;4975915;28;20435;-80
2021/07/22 11:13:40;;;;;;;8.90;7.40;;;33.70;93.90;;;;;;4978640;28;20419;-80
2021/07/22 11:16:23;;;;;;;11.37;7.17;;;33.30;93.90;;;;;;4975622;28;20407;-80
2021/07/22 11:18:57;;;;;;;9.03;8.13;;;32.90;94.80;;;;;;4977283;28;20753;-80
2021/07/22 11:21:37;;;;;;;9.83;7.23;;;32.60;93.90;;;;;;4975980;28;20460;-79
2021/07/22 11:24:15;;;;;;;9.03;8.20;;;32.30;95.20;;;;;;4973937;28;20928;-77
2021/07/22 11:26:42;;;;;;;11.03;7.23;;;32.30;96.40;;;;;;4978401;28;20400;-79
2021/07/22 11:29:14;;;;;;;10.47;7.47;;;32.40;95.90;;;;;;4978688;28;20458;-78
2021/07/22 11:31:41;;;;;;;7.80;7.10;;;32.50;95.40;;;;;;4977777;28;20857;-80
2021/07/22 11:34:11;;;;;;;8.00;6.93;;;32.60;96.00;;;;;;4977158;28;20412;-80
2021/07/22 11:36:37;;;;;;;8.80;6.57;;;32.80;95.10;;;;;;4976382;28;20419;-80
2021/07/22 11:39:05;;;;;;;13.47;6.80;;;33.00;95.20;;;;;;4975721;28;20411;-78
2021/07/22 11:41:31;;;;;;;11.00;7.00;;;32.30;96.00;;;;;;4975933;28;20448;-80
2021/07/22 11:44:01;;;;;;;7.50;6.80;;;32.10;98.20;;;;;;4977442;28;20514;-79
2021/07/22 11:46:44;;;;;;;10.80;7.20;;;32.20;98.10;;;;;;4976861;28;20400;-80
2021/07/22 11:49:14;;;;;;;8.47;7.40;;;32.10;96.00;;;;;;4976736;28;20470;-80
2021/07/22 11:51:43;;;;;;;7.80;7.00;;;32.30;96.90;;;;;;4977894;28;20489;-79
2021/07/22 11:54:11;;;;;;;12.20;6.87;;;32.20;95.50;;;;;;4975800;28;20423;-78
2021/07/22 11:56:37;;;;;;;9.23;7.33;;;32.30;98.50;;;;;;4974736;28;20415;-79
2021/07/22 11:59:06;;;;;;;8.10;7.33;;;32.30;96.00;;;;;;4976064;28;20450;-81
2021/07/22 12:01:34;;;;;;;12.20;7.60;;;32.00;98.40;;;;;;4976728;28;20435;-80
2021/07/22 12:04:00;;;;;;;8.37;7.57;;;32.00;97.90;;;;;;4976256;28;20790;-79
2021/07/22 12:06:27;;;;;;;8.93;8.07;;;32.00;98.60;;;;;;4975106;28;20423;-80
2021/07/22 12:09:06;;;;;;;8.50;7.70;;;31.80;96.40;;;;;;4977812;28;20207;-81
2021/07/22 12:12:00;;;;;;;9.47;7.63;;;31.70;97.50;;;;;;4981353;28;20459;-80
2021/07/22 12:14:35;;;;;;;9.70;8.17;;;31.60;98.00;;;;;;4976371;28;20415;-78
2021/07/22 12:17:24;;;;;;;13.50;8.00;;;31.60;96.80;;;;;;4976082;28;20414;-78
2021/07/22 12:19:50;;;;;;;8.67;7.87;;;31.40;97.70;;;;;;4975111;28;20431;-79
2021/07/22 12:22:20;;;;;;;8.77;7.87;;;31.50;98.90;;;;;;4975330;28;20443;-80
2021/07/22 12:24:48;;;;;;;17.27;8.37;;;31.50;99.10;;;;;;4976043;28;20841;-80
2021/07/22 12:27:30;;;;;;;10.07;8.07;;;31.30;98.60;;;;;;4974708;28;20498;-79
2021/07/22 12:29:57;;;;;;;9.67;8.30;;;31.30;97.90;;;;;;4975852;28;20413;-80
2021/07/22 12:32:23;;;;;;;9.67;8.40;;;31.00;99.60;;;;;;4975434;28;20451;-79
2021/07/22 12:34:49;;;;;;;8.30;7.50;;;30.70;99.90;;;;;;4975683;28;20407;-79
2021/07/22 12:37:18;;;;;;;16.43;9.00;;;30.70;99.30;;;;;;4977308;28;20442;-81
2021/07/22 12:39:49;;;;;;;10.30;7.57;;;30.50;99.10;;;;;;4974280;28;20176;-82
2021/07/22 12:42:15;;;;;;;10.40;8.37;;;30.70;99.90;;;;;;4975823;28;20462;-81
2021/07/22 12:44:44;;;;;;;13.00;8.23;;;30.70;99.00;;;;;;4973559;28;20832;-81
2021/07/22 12:47:29;;;;;;;8.37;7.57;;;30.60;99.00;;;;;;4975441;28;20418;-81
2021/07/22 12:49:56;;;;;;;7.47;6.33;;;30.50;98.70;;;;;;4976563;28;20548;-80
2021/07/22 12:52:22;;;;;;;10.67;7.47;;;30.30;98.90;;;;;;4973793;28;20436;-80
2021/07/22 12:54:58;;;;;;;10.10;7.90;;;30.10;99.50;;;;;;4975684;28;20907;-80
2021/07/22 12:57:38;;;;;;;8.27;7.20;;;29.80;99.90;;;;;;4977075;28;20501;-80
2021/07/22 13:00:10;;;;;;;8.50;7.50;;;29.70;99.90;;;;;;4976821;28;20419;-80
2021/07/22 13:02:37;;;;;;;12.93;7.63;;;29.80;99.90;;;;;;4976973;28;20469;-80
2021/07/22 13:05:05;;;;;;;9.10;7.57;;;29.90;99.90;;;;;;4977104;28;20447;-80
2021/07/22 13:07:30;;;;;;;8.57;7.77;;;29.70;99.90;;;;;;4977356;28;20541;-79
2021/07/22 13:09:57;;;;;;;10.87;8.10;;;29.70;99.90;;;;;;4977810;28;20814;-79
2021/07/22 13:12:22;;;;;;;14.23;9.10;;;29.70;99.90;;;;;;4977779;28;20303;-80
2021/07/22 13:14:48;;;;;;;11.13;8.67;;;29.90;99.90;;;;;;4978041;28;20447;-79
2021/07/22 13:17:20;;;;;;;10.03;9.00;;;29.90;99.90;;;;;;4978795;28;20180;-79
2021/07/22 13:19:46;;;;;;;10.70;8.03;;;29.80;99.90;;;;;;4978143;28;20191;-79
2021/07/22 13:22:12;;;;;;;8.20;7.20;;;29.30;99.90;;;;;;4979424;28;20435;-79
2021/07/22 13:24:37;;;;;;;8.67;7.23;;;29.40;99.90;;;;;;4977441;28;20184;-79
2021/07/22 13:27:03;;;;;;;10.80;8.20;;;29.50;99.90;;;;;;4978026;28;20191;-79
2021/07/22 13:29:29;;;;;;;11.63;7.30;;;29.60;99.90;;;;;;4979522;28;20180;-79
2021/07/22 13:31:55;;;;;;;11.27;8.00;;;29.50;99.90;;;;;;4978432;28;20227;-80
2021/07/22 13:34:21;;;;;;;11.67;8.87;;;29.40;99.90;;;;;;4979656;28;20203;-79
2021/07/22 13:36:48;;;;;;;9.80;8.47;;;29.30;99.30;;;;;;4978074;28;20865;-78
2021/07/22 13:39:14;;;;;;;9.40;8.50;;;29.40;99.90;;;;;;4980219;28;20444;-79
2021/07/22 13:41:40;;;;;;;10.03;8.57;;;29.50;99.90;;;;;;4978692;28;20235;-79
2021/07/22 13:44:06;;;;;;;9.60;8.63;;;29.50;98.70;;;;;;4978965;28;20420;-80
2021/07/22 13:46:31;;;;;;;9.10;8.20;;;29.10;99.90;;;;;;4979247;28;20176;-79
2021/07/22 13:48:57;;;;;;;11.80;9.03;;;29.00;99.70;;;;;;4978236;28;20568;-78
2021/07/22 13:51:23;;;;;;;10.43;9.33;;;28.90;99.60;;;;;;4977853;28;20199;-79
2021/07/22 13:53:49;;;;;;;11.40;8.60;;;28.80;98.70;;;;;;4979068;28;20176;-79
2021/07/22 13:56:15;;;;;;;11.80;9.37;;;28.70;99.20;;;;;;4979635;28;20427;-79
2021/07/22 13:58:40;;;;;;;11.23;8.90;;;28.60;99.00;;;;;;4977783;28;20238;-79
2021/07/22 14:01:06;;;;;;;11.30;8.10;;;28.60;99.90;;;;;;4976907;28;20230;-78
2021/07/22 14:03:32;;;;;;;8.93;7.77;;;28.50;99.80;;;;;;4977667;28;20219;-79
2021/07/22 14:05:58;;;;;;;8.67;7.77;;;28.50;99.90;;;;;;4977586;28;20182;-78
2021/07/22 14:08:24;;;;;;;10.27;7.90;;;28.60;99.90;;;;;;4977645;28;20451;-78
2021/07/22 14:10:49;;;;;;;13.50;8.60;;;28.60;99.90;;;;;;4976314;28;20199;-79
2021/07/22 14:13:15;;;;;;;8.10;7.23;;;28.60;99.90;;;;;;4976133;28;20207;-79
2021/07/22 14:15:41;;;;;;;8.97;8.17;;;28.70;99.90;;;;;;4975893;28;20424;-78
2021/07/22 14:18:06;;;;;;;13.07;7.97;;;28.70;99.90;;;;;;4975609;28;20176;-78
2021/07/22 14:20:32;;;;;;;9.60;7.70;;;28.70;99.90;;;;;;4975898;28;20211;-79
2021/07/22 14:22:58;;;;;;;11.37;8.37;;;28.70;99.90;;;;;;4976154;28;20215;-81
2021/07/22 14:25:26;;;;;;;10.80;8.67;;;28.90;99.90;;;;;;4975103;28;20180;-81
2021/07/22 14:27:52;;;;;;;9.40;8.33;;;28.70;99.90;;;;;;4976121;28;20756;-81
2021/07/22 14:30:17;;;;;;;9.30;8.20;;;28.50;99.90;;;;;;4974536;28;20412;-79
2021/07/22 14:32:44;;;;;;;8.90;8.13;;;28.40;99.90;;;;;;4975322;28;20247;-79
2021/07/22 14:35:10;;;;;;;10.43;7.40;;;28.30;99.90;;;;;;4975743;28;20342;-78
2021/07/22 14:37:36;;;;;;;9.73;8.83;;;28.20;99.90;;;;;;4975710;28;20511;-78
2021/07/22 14:40:03;;;;;;;9.70;8.70;;;28.00;99.90;;;;;;4974072;28;20506;-79
2021/07/22 14:42:31;;;;;;;11.10;7.80;;;27.90;99.90;;;;;;4975958;28;20474;-79
2021/07/22 14:44:57;;;;;;;8.87;8.07;;;27.90;99.90;;;;;;4975425;28;20443;-78
2021/07/22 14:47:23;;;;;;;11.43;8.00;;;27.90;99.90;;;;;;4975743;28;20443;-79
2021/07/22 14:49:49;;;;;;;9.97;8.30;;;27.90;99.90;;;;;;4975857;28;20183;-79
2021/07/22 14:52:15;;;;;;;10.00;7.40;;;28.00;99.90;;;;;;4975335;28;20631;-79
2021/07/22 14:54:41;;;;;;;16.07;7.57;;;28.00;99.90;;;;;;4975089;28;20443;-79
2021/07/22 14:57:07;;;;;;;9.57;8.13;;;28.00;99.90;;;;;;4975227;28;20420;-78
2021/07/22 14:59:33;;;;;;;8.60;7.70;;;28.10;99.90;;;;;;4975526;28;20412;-78
2021/07/22 15:01:59;;;;;;;13.97;8.40;;;28.10;99.90;;;;;;4973610;28;20253;-78
2021/07/22 15:04:24;;;;;;;16.70;7.77;;;28.00;99.90;;;;;;4974993;28;20180;-79
2021/07/22 15:06:50;;;;;;;10.60;8.07;;;27.90;99.90;;;;;;4975144;28;20183;-79
2021/07/22 15:09:15;;;;;;;12.90;7.80;;;27.90;99.90;;;;;;4973677;28;20266;-78
2021/07/22 15:11:41;;;;;;;9.40;8.50;;;27.90;99.90;;;;;;4974522;28;20204;-79
2021/07/22 15:14:07;;;;;;;8.60;6.90;;;28.00;99.90;;;;;;4976255;28;20204;-79
2021/07/22 15:16:33;;;;;;;11.07;7.87;;;27.90;99.90;;;;;;4974436;28;20200;-79
2021/07/22 15:18:59;;;;;;;13.00;8.30;;;27.90;99.90;;;;;;4974537;28;20419;-78
2021/07/22 15:21:26;;;;;;;9.07;7.97;;;27.80;99.90;;;;;;4975892;28;20258;-79
2021/07/22 15:23:51;;;;;;;10.13;8.03;;;27.70;99.90;;;;;;4978328;28;20411;-78
2021/07/22 15:26:18;;;;;;;9.57;7.83;;;27.60;99.90;;;;;;4976983;28;20415;-78
2021/07/22 15:28:44;;;;;;;10.50;8.17;;;27.50;99.90;;;;;;4976100;28;20548;-79
2021/07/22 15:31:10;;;;;;;11.17;8.30;;;27.40;99.90;;;;;;4975828;28;20489;-79
2021/07/22 15:33:35;;;;;;;10.67;7.27;;;27.20;99.90;;;;;;4975696;28;20180;-77
2021/07/22 15:36:02;;;;;;;9.83;7.70;;;27.20;99.90;;;;;;4976097;28;20494;-78
2021/07/22 15:38:30;;;;;;;8.83;7.80;;;27.10;99.90;;;;;;4975882;28;20258;-78
2021/07/22 15:40:56;;;;;;;9.00;8.10;;;27.10;99.90;;;;;;4975892;28;20431;-78
2021/07/22 15:43:22;;;;;;;10.97;8.93;;;27.00;99.90;;;;;;4975487;28;20412;-78
2021/07/22 15:45:48;;;;;;;8.80;7.90;;;27.00;99.90;;;;;;4973870;28;20183;-78
2021/07/22 15:48:14;;;;;;;9.43;8.60;;;27.00;99.90;;;;;;4975098;28;20471;-78
2021/07/22 15:50:39;;;;;;;12.30;8.73;;;27.00;99.90;;;;;;4976352;28;20462;-78
2021/07/22 15:53:05;;;;;;;10.33;8.20;;;27.10;99.90;;;;;;4978589;28;20172;-79
2021/07/22 15:55:32;;;;;;;10.07;7.77;;;27.00;99.90;;;;;;4977027;28;20184;-78
2021/07/22 15:57:57;;;;;;;12.07;7.83;;;27.00;99.90;;;;;;4977170;28;20667;-81
2021/07/22 16:00:24;;;;;;;13.00;8.10;;;27.00;99.90;;;;;;4977190;28;20415;-80
2021/07/22 16:02:49;;;;;;;9.30;8.40;;;26.90;99.90;;;;;;4976994;28;20173;-79
2021/07/22 16:05:15;;;;;;;8.33;7.53;;;26.80;99.90;;;;;;4978164;28;20420;-80
2021/07/22 16:07:41;;;;;;;10.30;9.07;;;26.80;99.90;;;;;;4977665;28;20327;-81
2021/07/22 16:10:10;;;;;;;10.13;9.13;;;26.80;99.90;;;;;;4978351;28;20235;-81
2021/07/22 16:12:36;;;;;;;13.27;8.07;;;26.80;99.90;;;;;;4978128;28;20192;-80
2021/07/22 16:15:02;;;;;;;12.97;8.70;;;26.80;99.90;;;;;;4973861;28;20452;-80
2021/07/22 16:17:28;;;;;;;12.60;9.33;;;26.70;99.90;;;;;;4979175;28;20188;-79
2021/07/22 16:19:54;;;;;;;11.07;8.77;;;26.70;99.90;;;;;;4978910;28;20407;-77
2021/07/22 16:22:20;;;;;;;9.87;8.37;;;26.70;99.90;;;;;;4985960;28;21013;-81
2021/07/22 16:24:45;;;;;;;9.67;8.63;;;26.70;99.90;;;;;;4988444;28;20287;-81
2021/07/22 16:27:11;;;;;;;8.70;7.80;;;26.60;99.90;;;;;;4989229;28;20712;-80
2021/07/22 16:29:36;;;;;;;11.83;8.83;;;26.60;99.90;;;;;;4987405;28;20199;-80
2021/07/22 16:32:05;;;;;;;8.70;7.90;;;26.50;99.90;;;;;;4988187;28;20240;-80
2021/07/22 16:34:31;;;;;;;13.00;7.90;;;26.40;99.90;;;;;;4990285;28;20172;-81
2021/07/22 16:36:56;;;;;;;8.83;7.80;;;26.40;99.90;;;;;;4988387;28;20769;-81
2021/07/22 16:39:22;;;;;;;10.53;8.80;;;26.50;99.90;;;;;;4986076;28;20204;-78
2021/07/22 16:41:48;;;;;;;10.83;8.37;;;26.40;99.90;;;;;;4978731;28;20199;-78
2021/07/22 16:44:14;;;;;;;16.50;11.30;;;26.40;99.90;;;;;;4978780;28;20199;-78
2021/07/22 16:46:40;;;;;;;19.77;13.17;;;26.30;99.90;;;;;;4978947;28;20179;-78
2021/07/22 16:49:05;;;;;;;13.83;10.80;;;26.30;99.90;;;;;;4979475;28;20582;-80
2021/07/22 16:51:31;;;;;;;14.20;8.93;;;26.20;99.90;;;;;;4981749;28;20195;-80
2021/07/22 16:53:58;;;;;;;9.27;8.10;;;26.10;99.90;;;;;;4981019;28;20179;-80
2021/07/22 16:56:24;;;;;;;9.00;8.10;;;26.10;99.90;;;;;;4984200;28;20263;-80
2021/07/22 16:58:49;;;;;;;11.30;7.83;;;26.00;99.90;;;;;;4987237;28;20454;-81
2021/07/22 17:01:15;;;;;;;11.53;8.73;;;26.00;99.90;;;;;;4982140;28;20567;-82
2021/07/22 17:03:41;;;;;;;10.80;8.57;;;26.00;99.90;;;;;;4986384;28;20180;-81
2021/07/22 17:06:06;;;;;;;16.17;9.90;;;25.90;99.90;;;;;;4985675;28;20215;-80
2021/07/22 17:08:32;;;;;;;15.70;9.60;;;25.90;99.90;;;;;;4985265;28;20254;-80
2021/07/22 17:10:58;;;;;;;11.90;9.27;;;25.90;99.90;;;;;;4984605;28;20191;-81